Time;durP1;ratioP1;P1;durP2;ratioP2;P2;SDS_P1;SDS_P2;PMS_P1;PMS_P2;Temp;Humidity;BMP_temperature;BMP_pressure;BME280_temperature;BME280_humidity;BME280_pressure;Samples;Min_cycle;Max_cycle;Signal;HPM_P1;HPM_P2
2021/06/11 00:00:06;;;;;;;13.00;11.70;;;;;;;14.58;76.91;95956.16;4976703;28;20683;-77
2021/06/11 00:02:31;;;;;;;13.03;11.93;;;;;;;14.50;76.84;95956.97;4993265;28;20184;-76
2021/06/11 00:04:56;;;;;;;13.17;11.97;;;;;;;14.47;76.61;95953.84;4968405;28;20203;-77
2021/06/11 00:07:22;;;;;;;14.02;12.60;;;;;;;14.45;76.85;95957.44;4975861;28;20187;-77
2021/06/11 00:09:47;;;;;;;13.63;12.23;;;;;;;14.45;76.94;95956.59;4976539;28;20172;-77
2021/06/11 00:12:13;;;;;;;14.73;12.50;;;;;;;14.44;76.70;95955.75;4960464;28;20182;-77
2021/06/11 00:14:39;;;;;;;13.37;12.07;;;;;;;14.43;77.15;95959.34;4991408;28;20211;-77
2021/06/11 00:17:04;;;;;;;14.10;12.80;;;;;;;14.41;76.67;95945.66;4974232;28;20172;-77
2021/06/11 00:19:29;;;;;;;13.60;12.30;;;;;;;14.38;77.30;95951.16;4956980;28;20196;-77
2021/06/11 00:21:55;;;;;;;13.48;12.25;;;;;;;14.36;77.02;95952.31;4957046;28;20304;-77
2021/06/11 00:24:20;;;;;;;15.13;13.73;;;;;;;14.30;77.60;95951.16;4961281;28;20211;-77
2021/06/11 00:26:45;;;;;;;13.80;12.50;;;;;;;14.37;76.49;95946.94;4981227;28;20234;-76
2021/06/11 00:29:11;;;;;;;14.60;13.30;;;;;;;14.38;76.49;95947.75;4957028;28;20177;-76
2021/06/11 00:31:36;;;;;;;14.20;12.83;;;;;;;14.36;76.36;95953.13;4974241;28;20186;-76
2021/06/11 00:34:01;;;;;;;14.97;13.60;;;;;;;14.32;77.12;95951.84;4957623;28;20544;-77
2021/06/11 00:36:27;;;;;;;15.03;13.63;;;;;;;14.33;77.12;95953.47;4967986;28;20184;-77
2021/06/11 00:38:52;;;;;;;14.47;13.07;;;;;;;14.35;76.58;95954.13;4975840;28;20180;-76
2021/06/11 00:41:17;;;;;;;15.47;13.83;;;;;;;14.35;76.61;95948.91;4993489;28;20179;-77
2021/06/11 00:43:43;;;;;;;15.27;13.73;;;;;;;14.31;76.60;95952.81;4975731;28;20199;-77
2021/06/11 00:46:08;;;;;;;16.07;14.37;;;;;;;14.30;76.93;95951.16;4975068;28;20191;-77
2021/06/11 00:48:33;;;;;;;14.27;12.87;;;;;;;14.28;76.68;95945.28;4975694;28;20215;-76
2021/06/11 00:50:59;;;;;;;14.77;13.27;;;;;;;14.30;76.34;95945.13;4959677;28;20215;-77
2021/06/11 00:53:24;;;;;;;14.40;13.10;;;;;;;14.40;76.09;95949.25;4950672;28;20214;-77
2021/06/11 00:55:49;;;;;;;16.10;14.43;;;;;;;14.52;75.56;95954.19;4975758;28;20187;-76
2021/06/11 00:58:16;;;;;;;14.10;12.90;;;;;;;14.48;75.56;95940.59;4959683;28;20183;-77
2021/06/11 01:00:41;;;;;;;14.63;13.23;;;;;;;14.47;75.54;95941.56;4975728;28;20574;-77
2021/06/11 01:03:06;;;;;;;16.10;14.67;;;;;;;14.47;75.61;95949.41;4958346;28;20184;-77
2021/06/11 01:05:32;;;;;;;15.40;13.63;;;;;;;14.45;75.80;95952.19;4967550;28;20919;-76
2021/06/11 01:07:58;;;;;;;15.30;13.80;;;;;;;14.39;75.75;95952.81;4975745;28;20187;-77
2021/06/11 01:10:24;;;;;;;15.40;14.03;;;;;;;14.47;75.67;95953.84;4975610;28;20179;-76
2021/06/11 01:12:50;;;;;;;15.70;13.97;;;;;;;14.48;75.45;95955.47;4958569;28;20559;-77
2021/06/11 01:15:17;;;;;;;15.23;13.83;;;;;;;14.52;75.14;95952.38;4959037;28;20227;-76
2021/06/11 01:17:42;;;;;;;15.10;13.60;;;;;;;14.61;74.94;95950.59;4975066;28;20673;-77
2021/06/11 01:20:10;;;;;;;15.77;14.17;;;;;;;14.59;74.78;95948.16;4975428;28;20286;-77
2021/06/11 01:23:29;;;;;;;14.98;13.57;;;;;;;14.63;74.65;95948.63;4969146;28;20544;-76
2021/06/11 01:26:02;;;;;;;15.30;13.80;;;;;;;14.64;74.69;95950.25;4892304;29;20198;-77
2021/06/11 01:28:28;;;;;;;15.50;14.00;;;;;;;14.60;74.60;95948.97;4894604;29;20190;-76
2021/06/11 01:30:55;;;;;;;14.57;13.20;;;;;;;14.61;74.43;95950.59;4878984;29;20182;-76
2021/06/11 01:33:21;;;;;;;15.03;13.63;;;;;;;14.61;74.41;95947.97;4893224;29;20569;-77
2021/06/11 01:35:52;;;;;;;14.77;13.47;;;;;;;14.64;74.19;95945.03;4871001;29;20203;-77
2021/06/11 01:38:20;;;;;;;14.77;13.40;;;;;;;14.62;74.40;95952.22;4875958;29;20680;-76
2021/06/11 01:40:46;;;;;;;14.80;13.40;;;;;;;14.64;74.33;95945.03;4860263;29;20224;-77
2021/06/11 01:43:12;;;;;;;15.10;13.70;;;;;;;14.62;74.41;95939.16;4880264;29;20203;-75
2021/06/11 01:45:37;;;;;;;16.17;14.67;;;;;;;14.61;74.67;95942.75;4878792;29;20195;-77
2021/06/11 01:48:03;;;;;;;15.63;14.13;;;;;;;14.62;74.09;95941.75;4894392;29;20251;-77
2021/06/11 01:50:31;;;;;;;16.00;14.50;;;;;;;14.64;74.24;95948.44;4894346;29;20191;-76
2021/06/11 01:52:57;;;;;;;14.60;13.27;;;;;;;14.63;74.18;95946.00;4894198;29;20581;-76
2021/06/11 01:55:23;;;;;;;15.93;14.43;;;;;;;14.64;74.07;95945.03;4877421;29;20210;-76
2021/06/11 01:57:48;;;;;;;14.60;13.20;;;;;;;14.62;74.25;95941.75;4878800;29;20227;-76
2021/06/11 02:00:14;;;;;;;14.50;13.20;;;;;;;14.60;73.99;95943.72;4937837;28;20775;-77
2021/06/11 02:02:41;;;;;;;15.00;13.70;;;;;;;14.60;73.96;95944.53;4950168;28;20184;-77
2021/06/11 02:05:07;;;;;;;14.73;13.40;;;;;;;14.61;74.10;95947.97;4962248;28;20212;-76
2021/06/11 02:07:34;;;;;;;15.00;13.70;;;;;;;14.58;74.22;95946.50;4969393;28;20180;-76
2021/06/11 02:09:59;;;;;;;16.03;14.13;;;;;;;14.56;74.22;95945.84;4975048;28;20180;-77
2021/06/11 02:12:25;;;;;;;15.20;13.80;;;;;;;14.53;74.21;95942.75;4974746;28;20218;-77
2021/06/11 02:14:50;;;;;;;15.40;14.00;;;;;;;14.47;74.41;95938.97;4973203;28;21747;-76
2021/06/11 02:17:16;;;;;;;15.80;14.17;;;;;;;14.46;74.49;95934.72;4963458;28;20227;-77
2021/06/11 02:19:43;;;;;;;14.17;12.83;;;;;;;14.46;74.63;95937.34;4939039;28;20203;-77
2021/06/11 02:22:09;;;;;;;14.82;12.82;;;;;;;14.45;74.46;95939.13;4955458;28;20185;-76
2021/06/11 02:24:34;;;;;;;15.13;13.63;;;;;;;14.43;74.32;95933.22;4939157;28;20255;-77
2021/06/11 02:27:01;;;;;;;14.90;13.40;;;;;;;14.43;74.36;95933.22;4961396;28;20192;-76
2021/06/11 02:29:26;;;;;;;14.87;13.47;;;;;;;14.44;74.53;95947.09;4992369;28;20190;-75
2021/06/11 02:31:51;;;;;;;14.20;12.85;;;;;;;14.38;74.69;95940.72;4978575;28;20176;-76
2021/06/11 02:34:17;;;;;;;15.95;14.45;;;;;;;14.32;74.74;95941.38;4977940;28;20243;-77
2021/06/11 02:36:42;;;;;;;15.23;13.73;;;;;;;14.27;75.59;95946.25;4994960;28;20194;-77
2021/06/11 02:39:08;;;;;;;15.17;13.77;;;;;;;14.21;75.87;95949.50;4970237;28;20195;-77
2021/06/11 02:41:45;;;;;;;15.55;13.90;;;;;;;14.13;76.22;95946.88;4978318;28;20183;-76
2021/06/11 02:44:11;;;;;;;13.68;12.27;;;;;;;14.14;75.79;95938.91;4961887;28;20254;-77
2021/06/11 02:46:43;;;;;;;15.67;14.13;;;;;;;14.05;76.58;95942.47;4977309;28;20187;-76
2021/06/11 02:49:12;;;;;;;14.60;13.30;;;;;;;13.98;76.71;95943.25;4969584;28;20187;-77
2021/06/11 02:51:42;;;;;;;14.35;12.93;;;;;;;13.93;77.05;95940.28;4978146;28;20172;-76
2021/06/11 02:54:14;;;;;;;14.17;12.87;;;;;;;13.88;77.32;95938.19;4978000;28;20196;-77
2021/06/11 02:56:44;;;;;;;14.47;13.07;;;;;;;13.79;77.95;95937.34;4978042;28;20669;-77
2021/06/11 02:59:26;;;;;;;15.23;13.77;;;;;;;13.76;77.79;95932.41;4969043;28;20234;-77
2021/06/11 03:01:54;;;;;;;15.43;14.00;;;;;;;13.76;77.83;95934.19;4995524;28;20246;-77
2021/06/11 03:04:20;;;;;;;14.93;13.50;;;;;;;13.84;77.57;95936.84;4977840;28;20199;-77
2021/06/11 03:06:48;;;;;;;14.40;13.13;;;;;;;13.88;77.45;95933.78;4961928;28;20528;-77
2021/06/11 03:09:14;;;;;;;15.40;13.87;;;;;;;13.92;77.46;95929.03;4973479;28;20205;-76
2021/06/11 03:11:42;;;;;;;14.63;13.33;;;;;;;14.00;76.76;95930.84;4973735;28;20643;-77
2021/06/11 03:14:08;;;;;;;14.83;13.43;;;;;;;14.00;76.62;95933.47;4999216;28;20196;-76
2021/06/11 03:16:34;;;;;;;15.17;13.77;;;;;;;14.00;76.87;95933.47;4985866;28;20187;-76
2021/06/11 03:19:05;;;;;;;13.97;12.57;;;;;;;13.98;76.89;95938.84;4967974;28;20185;-75
2021/06/11 03:21:49;;;;;;;14.00;12.80;;;;;;;13.98;76.87;95938.03;4963290;28;20224;-76
2021/06/11 03:24:14;;;;;;;15.40;13.87;;;;;;;13.96;77.09;95937.34;4965257;28;20200;-75
2021/06/11 03:26:46;;;;;;;14.43;13.07;;;;;;;13.95;76.72;95933.13;4978261;28;20172;-77
2021/06/11 03:29:14;;;;;;;15.43;13.93;;;;;;;13.91;76.88;95931.81;4957894;28;20165;-76
2021/06/11 03:31:42;;;;;;;15.30;13.80;;;;;;;13.90;77.08;95933.59;4960872;28;20710;-76
2021/06/11 03:34:15;;;;;;;15.07;13.63;;;;;;;13.89;77.06;95940.63;4958037;28;20680;-77
2021/06/11 03:36:42;;;;;;;14.70;13.30;;;;;;;13.95;77.25;95944.38;4958076;28;20279;-77
2021/06/11 03:39:14;;;;;;;14.75;13.32;;;;;;;14.00;76.84;95938.69;4965113;28;20297;-77
2021/06/11 03:41:40;;;;;;;15.43;13.97;;;;;;;14.05;76.50;95937.25;4978024;28;20607;-75
2021/06/11 03:44:08;;;;;;;15.87;14.40;;;;;;;14.12;76.73;95942.63;4969030;28;20230;-75
2021/06/11 03:46:34;;;;;;;14.98;13.55;;;;;;;14.17;76.26;95945.59;4977464;28;20183;-75
2021/06/11 03:49:00;;;;;;;14.73;13.23;;;;;;;14.18;75.68;95952.44;4974074;28;20682;-75
2021/06/11 03:51:26;;;;;;;14.55;13.05;;;;;;;14.25;75.64;95942.19;4970868;28;20710;-75
2021/06/11 03:53:52;;;;;;;15.27;13.87;;;;;;;14.32;75.27;95949.22;4976994;28;20196;-75
2021/06/11 03:56:18;;;;;;;15.13;13.63;;;;;;;14.41;75.14;95945.66;4977276;28;20179;-75
2021/06/11 03:58:44;;;;;;;14.98;13.57;;;;;;;14.86;74.42;95948.81;4975888;28;20179;-76
2021/06/11 04:01:16;;;;;;;15.32;13.88;;;;;;;15.44;72.05;95943.28;4960284;28;20200;-75
2021/06/11 04:03:42;;;;;;;14.38;12.95;;;;;;;16.06;70.58;95950.44;4976409;28;20196;-76
2021/06/11 04:06:14;;;;;;;13.57;12.27;;;;;;;16.43;68.98;95944.50;4976973;28;20610;-76
2021/06/11 04:08:40;;;;;;;13.20;12.10;;;;;;;16.92;66.62;95946.78;4976795;28;20238;-76
2021/06/11 04:11:07;;;;;;;13.65;11.60;;;;;;;17.44;65.08;95943.34;4967793;28;20216;-76
2021/06/11 04:13:55;;;;;;;12.93;11.77;;;;;;;17.92;63.23;95949.06;4976296;28;20192;-75
2021/06/11 04:16:39;;;;;;;13.25;11.95;;;;;;;18.58;60.26;95947.19;4994102;28;20183;-76
2021/06/11 04:19:06;;;;;;;12.80;11.75;;;;;;;19.26;59.36;95951.06;4976245;28;20190;-76
2021/06/11 04:21:35;;;;;;;12.80;11.50;;;;;;;19.78;57.49;95953.19;4969518;28;20280;-76
2021/06/11 04:24:04;;;;;;;12.52;11.43;;;;;;;19.92;55.54;95948.00;4974390;28;20204;-76
2021/06/11 04:26:33;;;;;;;12.98;11.88;;;;;;;20.16;55.93;95962.53;4976308;28;20179;-76
2021/06/11 04:28:59;;;;;;;12.35;11.13;;;;;;;20.86;53.50;95958.66;4976262;28;20556;-75
2021/06/11 04:31:28;;;;;;;12.32;11.10;;;;;;;20.93;52.97;95955.00;4975220;28;20551;-76
2021/06/11 04:33:53;;;;;;;12.73;11.50;;;;;;;21.51;51.76;95954.41;4975546;28;20196;-76
2021/06/11 04:36:18;;;;;;;11.68;10.57;;;;;;;22.26;50.27;95962.75;4976178;28;20184;-76
2021/06/11 04:38:58;;;;;;;12.85;11.77;;;;;;;22.36;49.04;95962.31;4993514;28;20188;-76
2021/06/11 04:41:25;;;;;;;12.07;10.85;;;;;;;22.80;47.74;95964.91;4992655;28;20803;-76
2021/06/11 04:43:50;;;;;;;12.00;11.00;;;;;;;23.38;46.62;95963.88;4967564;28;20203;-75
2021/06/11 04:46:16;;;;;;;12.48;11.20;;;;;;;23.67;46.04;95970.38;4993389;28;20322;-76
2021/06/11 04:48:41;;;;;;;12.60;11.50;;;;;;;24.06;44.91;95971.00;4976140;28;20678;-75
2021/06/11 04:51:06;;;;;;;11.43;10.52;;;;;;;24.47;44.39;95973.78;4975772;28;20639;-75
2021/06/11 04:53:32;;;;;;;11.13;10.10;;;;;;;24.78;42.68;95979.91;4954917;28;20219;-76
2021/06/11 04:55:57;;;;;;;10.95;10.05;;;;;;;24.78;42.79;95982.56;4973925;28;20222;-75
2021/06/11 04:58:23;;;;;;;11.63;10.63;;;;;;;25.05;42.26;95983.81;4975824;28;20677;-76
2021/06/11 05:00:48;;;;;;;10.68;9.70;;;;;;;24.98;42.08;95983.06;4975841;28;20568;-76
2021/06/11 05:03:13;;;;;;;10.90;9.80;;;;;;;25.88;41.11;95976.72;4958388;28;20183;-77
2021/06/11 05:05:39;;;;;;;11.77;10.65;;;;;;;25.52;41.99;95978.56;4992902;28;20176;-74
2021/06/11 05:08:04;;;;;;;11.77;10.70;;;;;;;25.88;41.52;95976.72;4975767;28;20208;-77
2021/06/11 05:10:30;;;;;;;10.10;9.30;;;;;;;27.03;39.00;95971.34;4975458;28;20180;-76
2021/06/11 05:12:55;;;;;;;11.90;10.90;;;;;;;26.91;38.84;95983.88;4975522;28;20186;-76
2021/06/11 05:15:20;;;;;;;10.55;9.65;;;;;;;27.17;38.38;95977.16;4966250;28;20211;-76
2021/06/11 05:17:46;;;;;;;9.98;9.23;;;;;;;28.62;35.02;95983.19;4975333;28;20202;-77
2021/06/11 05:20:12;;;;;;;11.95;10.85;;;;;;;27.89;36.59;95989.75;4975396;28;20235;-77
2021/06/11 05:22:37;;;;;;;11.20;10.25;;;;;;;28.46;35.98;95990.25;4993336;28;20283;-77
2021/06/11 05:25:03;;;;;;;11.40;10.30;;;;;;;28.21;35.72;95990.72;4989979;28;20298;-77
2021/06/11 05:27:28;;;;;;;11.60;10.70;;;;;;;28.67;34.18;95991.28;4986964;28;20175;-77
2021/06/11 05:29:54;;;;;;;11.55;10.55;;;;;;;28.78;34.22;95998.34;4993055;28;20180;-77
2021/06/11 05:32:19;;;;;;;11.07;10.18;;;;;;;28.78;34.06;95997.53;4992570;28;20191;-78
2021/06/11 05:34:44;;;;;;;10.05;9.25;;;;;;;29.52;33.38;95987.06;4974249;28;20211;-77
2021/06/11 05:37:10;;;;;;;11.15;10.35;;;;;;;28.42;34.09;95988.31;4975862;28;20191;-74
2021/06/11 05:39:35;;;;;;;12.43;11.38;;;;;;;28.12;35.00;95980.72;4975881;28;20292;-77
2021/06/11 05:42:00;;;;;;;12.20;11.20;;;;;;;28.47;34.35;95986.53;4993658;28;20179;-77
2021/06/11 05:44:26;;;;;;;11.70;10.70;;;;;;;28.79;33.61;95999.16;4960091;28;20207;-77
2021/06/11 05:46:51;;;;;;;11.48;10.68;;;;;;;29.12;32.76;95990.16;4966985;28;20184;-77
2021/06/11 05:49:16;;;;;;;11.77;10.77;;;;;;;28.79;33.67;96002.63;4975473;28;20211;-76
2021/06/11 05:51:41;;;;;;;11.50;10.55;;;;;;;29.23;33.13;96007.91;4992577;28;20270;-77
2021/06/11 05:54:07;;;;;;;11.70;10.52;;;;;;;28.90;33.03;96000.13;4992299;28;20195;-76
2021/06/11 05:56:32;;;;;;;11.70;10.73;;;;;;;28.90;32.10;96000.13;4974836;28;20184;-77
2021/06/11 05:58:57;;;;;;;12.27;11.27;;;;;;;29.08;32.73;96005.09;4989610;28;20257;-77
2021/06/11 06:01:23;;;;;;;11.75;10.85;;;;;;;29.57;32.02;96011.16;4992428;28;20187;-77
2021/06/11 06:03:48;;;;;;;11.18;10.07;;;;;;;29.18;32.59;96009.72;4958650;28;20203;-77
2021/06/11 06:06:13;;;;;;;11.75;10.80;;;;;;;29.05;33.11;96009.06;4992317;28;20195;-76
2021/06/11 06:08:39;;;;;;;11.55;10.60;;;;;;;29.69;31.99;96002.97;4974309;28;20550;-78
2021/06/11 06:11:04;;;;;;;12.23;11.02;;;;;;;30.44;30.74;96004.47;4992487;28;20239;-75
2021/06/11 06:13:29;;;;;;;11.80;10.98;;;;;;;30.39;30.53;95998.28;4992716;28;20281;-77
2021/06/11 06:15:55;;;;;;;12.15;11.25;;;;;;;30.11;30.52;96004.84;4975787;28;20235;-77
2021/06/11 06:18:21;;;;;;;11.93;10.82;;;;;;;30.08;30.80;96006.16;4970283;28;20176;-77
2021/06/11 06:20:47;;;;;;;12.10;11.20;;;;;;;29.92;31.60;96006.31;4956427;28;20258;-77
2021/06/11 06:23:13;;;;;;;11.98;10.98;;;;;;;30.63;30.08;96002.13;4992912;28;20231;-77
2021/06/11 06:25:38;;;;;;;13.63;12.32;;;;;;;30.18;30.85;96000.88;4958846;28;20176;-77
2021/06/11 06:28:04;;;;;;;13.55;12.35;;;;;;;29.94;31.23;95999.63;4973851;28;20202;-77
2021/06/11 06:30:29;;;;;;;13.80;12.70;;;;;;;29.40;31.67;96010.44;4966716;28;20540;-76
2021/06/11 06:32:55;;;;;;;14.00;12.68;;;;;;;29.70;31.99;95998.41;4974218;28;20183;-75
2021/06/11 06:35:20;;;;;;;13.98;12.65;;;;;;;29.96;31.95;96005.53;4991229;28;20207;-78
2021/06/11 06:37:46;;;;;;;14.00;12.80;;;;;;;29.58;32.41;96004.72;4958295;28;20187;-76
2021/06/11 06:40:11;;;;;;;12.40;11.40;;;;;;;29.54;32.12;96003.66;4973169;28;20198;-74
2021/06/11 06:42:37;;;;;;;13.68;12.40;;;;;;;29.80;31.88;96001.16;4974754;28;20191;-76
2021/06/11 06:45:15;;;;;;;12.80;11.70;;;;;;;29.57;32.69;95997.78;4974685;28;20191;-78
2021/06/11 06:47:44;;;;;;;13.13;12.02;;;;;;;29.49;33.09;96006.28;4951839;28;20192;-77
2021/06/11 06:50:15;;;;;;;13.55;12.32;;;;;;;29.82;32.25;95999.03;4988967;28;20180;-76
2021/06/11 06:52:40;;;;;;;13.73;12.45;;;;;;;30.04;32.30;96010.41;4965886;28;20196;-76
2021/06/11 06:55:06;;;;;;;13.27;12.18;;;;;;;29.41;32.99;96012.06;4938610;28;20201;-76
2021/06/11 06:57:32;;;;;;;12.93;11.70;;;;;;;30.20;32.44;96005.94;4938928;28;20292;-76
2021/06/11 06:59:57;;;;;;;11.68;10.60;;;;;;;30.43;32.20;96008.22;4955244;28;20234;-76
2021/06/11 07:02:22;;;;;;;13.45;12.15;;;;;;;29.72;32.55;96004.31;4953293;28;20176;-77
2021/06/11 07:04:48;;;;;;;13.55;12.45;;;;;;;28.88;34.08;96008.31;4987120;28;20262;-76
2021/06/11 07:07:16;;;;;;;14.13;12.75;;;;;;;29.48;33.78;96007.31;4961095;28;20640;-76
2021/06/11 07:09:41;;;;;;;11.70;10.65;;;;;;;28.68;35.09;96006.25;4991851;28;20195;-76
2021/06/11 07:12:07;;;;;;;13.30;12.20;;;;;;;28.38;35.59;96008.59;4973903;28;20531;-76
2021/06/11 07:14:32;;;;;;;11.55;10.60;;;;;;;28.87;35.63;96012.06;4992114;28;20279;-77
2021/06/11 07:16:57;;;;;;;13.13;11.70;;;;;;;29.39;34.00;96013.38;4977096;28;20176;-77
2021/06/11 07:19:23;;;;;;;12.30;11.15;;;;;;;28.60;34.82;96012.03;4977999;28;20274;-77
2021/06/11 07:21:48;;;;;;;11.32;10.38;;;;;;;28.64;35.26;96018.50;4976623;28;20610;-74
2021/06/11 07:24:14;;;;;;;12.52;11.57;;;;;;;28.04;36.90;96011.31;4972164;28;20207;-76
2021/06/11 07:26:39;;;;;;;12.07;11.10;;;;;;;28.45;36.74;96011.88;4977473;28;20227;-76
2021/06/11 07:29:05;;;;;;;12.55;11.48;;;;;;;27.67;37.44;96012.91;4977772;28;20741;-76
2021/06/11 07:31:31;;;;;;;13.40;12.20;;;;;;;27.05;39.04;96008.41;4978038;28;20172;-76
2021/06/11 07:33:56;;;;;;;12.57;11.35;;;;;;;27.45;37.84;96013.59;4958025;28;20212;-75
2021/06/11 07:36:21;;;;;;;14.35;13.05;;;;;;;26.67;39.89;96009.78;4994514;28;20311;-76
2021/06/11 07:38:47;;;;;;;13.30;12.20;;;;;;;26.60;39.97;96019.81;4961437;28;20287;-77
2021/06/11 07:41:12;;;;;;;13.02;11.70;;;;;;;26.17;41.51;96015.69;4977490;28;20235;-77
2021/06/11 07:43:38;;;;;;;13.07;11.88;;;;;;;26.92;39.61;96014.78;4993781;28;20706;-76
2021/06/11 07:46:03;;;;;;;13.80;12.60;;;;;;;25.35;42.74;96030.78;4976898;28;20198;-75
2021/06/11 07:48:28;;;;;;;13.70;12.70;;;;;;;25.39;42.57;96018.69;4977299;28;20172;-76
2021/06/11 07:50:54;;;;;;;13.77;12.57;;;;;;;26.00;41.05;96014.00;4977322;28;20172;-76
2021/06/11 07:53:23;;;;;;;14.07;12.95;;;;;;;26.03;40.65;96014.31;4975656;28;20225;-75
2021/06/11 07:55:48;;;;;;;14.93;13.63;;;;;;;25.02;43.05;96018.84;4972777;28;20196;-76
2021/06/11 07:58:14;;;;;;;15.02;13.50;;;;;;;25.63;42.05;96012.34;4976948;28;20631;-75
2021/06/11 08:00:39;;;;;;;16.17;14.82;;;;;;;25.05;42.50;96023.69;4977502;28;20192;-75
2021/06/11 08:03:04;;;;;;;15.10;13.70;;;;;;;24.95;43.49;96020.72;4976925;28;20694;-77
2021/06/11 08:05:30;;;;;;;13.70;12.60;;;;;;;25.95;40.24;96018.13;4975910;28;20295;-76
2021/06/11 08:07:55;;;;;;;13.77;12.57;;;;;;;26.32;40.39;96014.38;4994398;28;20211;-75
2021/06/11 08:10:21;;;;;;;14.43;13.20;;;;;;;25.72;40.56;96012.84;4977432;28;20176;-75
2021/06/11 08:12:46;;;;;;;12.38;11.18;;;;;;;26.26;39.37;96014.28;4977330;28;20263;-77
2021/06/11 08:15:12;;;;;;;14.82;12.85;;;;;;;26.24;39.23;96016.38;4972104;28;20713;-76
2021/06/11 08:17:38;;;;;;;14.45;13.05;;;;;;;26.30;39.75;96014.63;4972191;28;20667;-76
2021/06/11 08:20:06;;;;;;;13.55;12.35;;;;;;;26.54;38.23;96015.41;4976707;28;20223;-76
2021/06/11 08:22:31;;;;;;;13.77;12.68;;;;;;;26.27;39.04;96012.44;4976976;28;20274;-76
2021/06/11 08:24:57;;;;;;;13.95;12.65;;;;;;;24.50;41.83;96018.47;4975933;28;20765;-76
2021/06/11 08:27:22;;;;;;;12.98;11.85;;;;;;;25.57;39.75;96007.13;4984650;28;20332;-75
2021/06/11 08:29:47;;;;;;;11.80;10.80;;;;;;;24.97;40.73;96017.84;4993579;28;20176;-75
2021/06/11 08:32:13;;;;;;;12.48;11.25;;;;;;;24.28;43.48;96017.25;4993913;28;20187;-76
2021/06/11 08:34:39;;;;;;;13.40;11.25;;;;;;;24.15;40.57;96012.13;4993050;28;20207;-74
2021/06/11 08:37:05;;;;;;;11.88;10.75;;;;;;;24.47;39.89;96015.44;4959150;28;20191;-75
2021/06/11 08:39:30;;;;;;;11.07;10.18;;;;;;;25.11;38.97;96017.47;4963495;28;20268;-78
2021/06/11 08:41:56;;;;;;;11.35;10.38;;;;;;;25.46;39.81;96016.72;4942121;28;20184;-77
2021/06/11 08:44:24;;;;;;;10.88;9.85;;;;;;;25.10;37.69;96023.00;4957252;28;20837;-76
2021/06/11 08:46:51;;;;;;;11.07;9.88;;;;;;;24.98;37.71;96016.81;4944564;28;20310;-77
2021/06/11 08:49:16;;;;;;;12.27;11.13;;;;;;;23.99;40.04;96016.97;4968845;28;20175;-77
2021/06/11 08:51:41;;;;;;;12.18;10.75;;;;;;;23.74;40.79;96011.69;4960064;28;20184;-76
2021/06/11 08:54:07;;;;;;;10.82;9.82;;;;;;;24.06;38.45;96014.25;4973732;28;20203;-76
2021/06/11 08:56:32;;;;;;;10.35;9.45;;;;;;;24.08;41.01;96014.03;5012888;28;20179;-80
2021/06/11 08:58:58;;;;;;;11.85;10.65;;;;;;;24.25;38.61;96017.72;4988022;28;20196;-77
2021/06/11 09:01:23;;;;;;;11.50;9.90;;;;;;;24.44;39.61;96014.03;4977924;28;20231;-76
2021/06/11 09:03:52;;;;;;;11.85;10.85;;;;;;;24.13;39.84;96012.34;4963382;28;20223;-74
2021/06/11 09:06:17;;;;;;;11.80;10.65;;;;;;;23.96;39.89;96008.66;4968118;28;20563;-78
2021/06/11 09:09:03;;;;;;;11.30;10.32;;;;;;;24.37;39.05;96010.66;4979638;28;20179;-77
2021/06/11 09:11:36;;;;;;;10.55;9.55;;;;;;;24.95;38.13;96017.25;4995740;28;20175;-76
2021/06/11 09:14:05;;;;;;;12.43;10.18;;;;;;;24.61;39.25;96010.78;4994845;28;20671;-76
2021/06/11 09:16:44;;;;;;;11.70;10.65;;;;;;;24.27;40.54;96015.66;4975968;28;20188;-75
2021/06/11 09:19:13;;;;;;;10.20;9.30;;;;;;;25.20;39.54;96014.47;4992171;28;20175;-74
2021/06/11 09:21:43;;;;;;;10.85;9.70;;;;;;;24.57;39.04;96021.84;4992877;28;20179;-75
2021/06/11 09:24:25;;;;;;;12.68;11.48;;;;;;;23.48;42.48;96013.75;4958951;28;20695;-76
2021/06/11 09:26:56;;;;;;;11.40;10.10;;;;;;;23.13;43.96;96015.03;4974710;28;20263;-75
2021/06/11 09:29:25;;;;;;;11.32;10.35;;;;;;;23.85;42.56;96012.81;4979872;28;20176;-74
2021/06/11 09:31:51;;;;;;;10.00;9.00;;;;;;;24.69;41.76;96007.81;4955918;28;20173;-76
2021/06/11 09:34:20;;;;;;;9.45;8.70;;;;;;;25.04;39.74;96013.28;4955560;28;20227;-75
2021/06/11 09:37:02;;;;;;;9.40;8.60;;;;;;;25.52;38.84;96012.31;4975673;28;20196;-75
2021/06/11 09:39:55;;;;;;;9.00;8.20;;;;;;;25.57;37.93;96015.91;4980153;28;20212;-76
2021/06/11 09:42:26;;;;;;;9.68;7.75;;;;;;;25.92;37.78;96013.28;4965916;28;20203;-75
2021/06/11 09:45:02;;;;;;;8.45;7.68;;;;;;;25.96;36.36;96010.97;4958678;28;20196;-76
2021/06/11 09:47:53;;;;;;;9.55;8.75;;;;;;;25.77;37.20;96010.28;4974219;28;20186;-75
2021/06/11 09:50:25;;;;;;;9.77;8.88;;;;;;;25.80;37.38;96014.34;4955950;28;20227;-75
2021/06/11 09:52:56;;;;;;;9.98;9.10;;;;;;;25.51;38.12;96008.84;4972807;28;20604;-76
2021/06/11 09:55:45;;;;;;;9.90;9.00;;;;;;;25.07;38.41;96016.28;4972665;28;20637;-75
2021/06/11 09:58:21;;;;;;;8.93;8.02;;;;;;;25.55;37.92;96007.38;4959415;28;20194;-74
2021/06/11 10:00:49;;;;;;;8.50;7.80;;;;;;;24.87;37.69;96015.72;4992124;28;20203;-74
2021/06/11 10:03:24;;;;;;;9.02;8.30;;;;;;;24.19;39.67;96010.63;4991923;28;20171;-75
2021/06/11 10:05:50;;;;;;;8.73;7.90;;;;;;;24.21;39.59;96006.75;4992134;28;20593;-74
2021/06/11 10:08:16;;;;;;;7.80;7.15;;;;;;;24.78;39.67;96009.13;4992210;28;20172;-75
2021/06/11 10:10:43;;;;;;;8.25;6.40;;;;;;;24.73;36.41;96015.09;4965621;28;20619;-76
2021/06/11 10:13:12;;;;;;;6.20;5.60;;;;;;;24.61;34.55;96003.63;4974517;28;20675;-76
2021/06/11 10:15:37;;;;;;;5.30;4.75;;;;;;;25.26;34.91;96009.03;4974884;28;20187;-75
2021/06/11 10:18:04;;;;;;;5.78;5.20;;;;;;;25.47;34.24;95997.06;4974637;28;20175;-75
2021/06/11 10:20:30;;;;;;;6.65;5.70;;;;;;;25.49;30.36;96004.81;4967799;28;20292;-75
2021/06/11 10:22:55;;;;;;;5.55;5.10;;;;;;;25.36;30.18;95992.56;4972524;28;20286;-76
2021/06/11 10:25:21;;;;;;;6.10;5.60;;;;;;;25.56;31.97;96003.66;4974171;28;20200;-76
2021/06/11 10:27:46;;;;;;;7.22;6.53;;;;;;;26.12;33.90;95999.63;4974604;28;20583;-76
2021/06/11 10:30:12;;;;;;;6.53;5.85;;;;;;;26.44;31.53;96004.56;4973875;28;20184;-76
2021/06/11 10:32:41;;;;;;;8.98;7.40;;;;;;;26.15;32.13;96001.81;4974435;28;20195;-76
2021/06/11 10:35:08;;;;;;;8.82;7.50;;;;;;;26.23;34.76;95998.78;4991621;28;20233;-76
2021/06/11 10:37:39;;;;;;;7.75;7.15;;;;;;;26.20;34.08;95996.59;4974497;28;20295;-76
2021/06/11 10:40:32;;;;;;;9.90;8.90;;;;;;;26.26;34.84;96008.97;4991854;28;20339;-76
2021/06/11 10:43:25;;;;;;;9.13;8.30;;;;;;;25.93;34.39;96003.47;4983421;28;20191;-75
2021/06/11 10:45:52;;;;;;;10.43;8.60;;;;;;;26.24;34.88;96007.59;4992080;28;20168;-75
2021/06/11 10:48:18;;;;;;;9.15;8.35;;;;;;;26.53;34.31;96000.47;4958374;28;20184;-75
2021/06/11 10:50:44;;;;;;;9.38;8.68;;;;;;;26.59;35.42;96004.03;4975347;28;20713;-75
2021/06/11 10:53:12;;;;;;;10.20;9.18;;;;;;;26.37;36.61;95998.53;4985705;28;20719;-74
2021/06/11 10:55:46;;;;;;;9.60;8.60;;;;;;;26.42;36.75;95999.47;4995435;28;20218;-74
2021/06/11 10:58:11;;;;;;;8.55;7.82;;;;;;;27.09;35.15;96001.53;4978310;28;20255;-76
2021/06/11 11:00:39;;;;;;;9.93;8.95;;;;;;;25.19;38.24;95991.59;4995164;28;20636;-75
2021/06/11 11:03:06;;;;;;;9.05;8.00;;;;;;;26.30;35.46;95993.31;4976482;28;20187;-74
2021/06/11 11:05:39;;;;;;;8.93;8.00;;;;;;;26.31;33.31;95994.13;4961408;28;20203;-73
2021/06/11 11:08:06;;;;;;;8.25;7.55;;;;;;;26.82;34.03;95991.44;4961583;28;20266;-75
2021/06/11 11:10:33;;;;;;;10.13;8.57;;;;;;;25.64;34.55;95990.03;4995228;28;20664;-75
2021/06/11 11:13:34;;;;;;;8.65;7.47;;;;;;;26.31;32.91;95983.47;4975097;28;20218;-74
2021/06/11 11:15:59;;;;;;;8.77;7.88;;;;;;;24.77;35.84;95997.69;4950790;29;20260;-74
2021/06/11 11:18:33;;;;;;;7.18;6.65;;;;;;;25.36;36.15;95987.25;4953824;29;20198;-75
2021/06/11 11:20:59;;;;;;;6.45;5.95;;;;;;;26.22;33.23;95991.03;4954018;29;20209;-74